sensor_id;sensor_type;location;lat;lon;timestamp;P1;durP1;ratioP1;P2;durP2;ratioP2
19059;SDS011;9663;48.996;8.334;2023-08-30T00:00:15;2.13;;;0.90;;
19059;SDS011;9663;48.996;8.334;2023-08-30T00:02:44;2.80;;;1.15;;
19059;SDS011;9663;48.996;8.334;2023-08-30T00:05:10;3.20;;;1.13;;
19059;SDS011;9663;48.996;8.334;2023-08-30T00:07:36;2.70;;;1.20;;
19059;SDS011;9663;48.996;8.334;2023-08-30T00:10:02;2.83;;;1.10;;
19059;SDS011;9663;48.996;8.334;2023-08-30T00:12:28;3.42;;;1.23;;
19059;SDS011;9663;48.996;8.334;2023-08-30T00:14:55;2.67;;;1.10;;
19059;SDS011;9663;48.996;8.334;2023-08-30T00:17:21;3.17;;;1.20;;
19059;SDS011;9663;48.996;8.334;2023-08-30T00:19:47;2.63;;;1.02;;
19059;SDS011;9663;48.996;8.334;2023-08-30T00:22:13;2.50;;;1.00;;
19059;SDS011;9663;48.996;8.334;2023-08-30T00:24:39;2.60;;;1.10;;
19059;SDS011;9663;48.996;8.334;2023-08-30T00:27:05;2.35;;;0.95;;
19059;SDS011;9663;48.996;8.334;2023-08-30T00:29:31;2.92;;;1.20;;
19059;SDS011;9663;48.996;8.334;2023-08-30T00:31:57;2.55;;;0.90;;
19059;SDS011;9663;48.996;8.334;2023-08-30T00:34:22;2.85;;;1.17;;
19059;SDS011;9663;48.996;8.334;2023-08-30T00:36:48;2.40;;;1.00;;
19059;SDS011;9663;48.996;8.334;2023-08-30T00:39:14;3.08;;;1.05;;
19059;SDS011;9663;48.996;8.334;2023-08-30T00:41:40;2.58;;;0.90;;
19059;SDS011;9663;48.996;8.334;2023-08-30T00:44:05;2.80;;;1.17;;
19059;SDS011;9663;48.996;8.334;2023-08-30T00:46:32;1.98;;;0.88;;
19059;SDS011;9663;48.996;8.334;2023-08-30T00:48:59;2.30;;;1.08;;
19059;SDS011;9663;48.996;8.334;2023-08-30T00:51:26;2.83;;;1.08;;
19059;SDS011;9663;48.996;8.334;2023-08-30T00:53:54;3.00;;;1.15;;
19059;SDS011;9663;48.996;8.334;2023-08-30T00:56:20;2.47;;;1.10;;
19059;SDS011;9663;48.996;8.334;2023-08-30T00:58:49;2.78;;;1.10;;
19059;SDS011;9663;48.996;8.334;2023-08-30T01:01:16;3.10;;;1.10;;
19059;SDS011;9663;48.996;8.334;2023-08-30T01:03:43;2.67;;;1.10;;
19059;SDS011;9663;48.996;8.334;2023-08-30T01:06:09;2.20;;;0.95;;
19059;SDS011;9663;48.996;8.334;2023-08-30T01:08:35;2.80;;;1.00;;
19059;SDS011;9663;48.996;8.334;2023-08-30T01:14:12;2.63;;;1.08;;
19059;SDS011;9663;48.996;8.334;2023-08-30T01:16:45;2.75;;;1.10;;
19059;SDS011;9663;48.996;8.334;2023-08-30T01:22:29;2.67;;;1.02;;
19059;SDS011;9663;48.996;8.334;2023-08-30T01:25:12;2.42;;;1.17;;
19059;SDS011;9663;48.996;8.334;2023-08-30T01:27:52;2.95;;;1.08;;
19059;SDS011;9663;48.996;8.334;2023-08-30T01:30:20;2.63;;;1.08;;
19059;SDS011;9663;48.996;8.334;2023-08-30T01:32:49;3.40;;;1.00;;
19059;SDS011;9663;48.996;8.334;2023-08-30T01:35:16;2.33;;;1.00;;
19059;SDS011;9663;48.996;8.334;2023-08-30T01:37:44;2.70;;;1.08;;
19059;SDS011;9663;48.996;8.334;2023-08-30T01:40:12;2.60;;;1.10;;
19059;SDS011;9663;48.996;8.334;2023-08-30T01:42:41;2.78;;;1.02;;
19059;SDS011;9663;48.996;8.334;2023-08-30T01:45:10;2.75;;;0.98;;
19059;SDS011;9663;48.996;8.334;2023-08-30T01:47:38;2.53;;;1.10;;
19059;SDS011;9663;48.996;8.334;2023-08-30T01:50:07;2.67;;;1.08;;
19059;SDS011;9663;48.996;8.334;2023-08-30T01:52:34;2.50;;;1.00;;
19059;SDS011;9663;48.996;8.334;2023-08-30T01:55:02;2.38;;;1.10;;
19059;SDS011;9663;48.996;8.334;2023-08-30T01:57:28;3.25;;;1.20;;
19059;SDS011;9663;48.996;8.334;2023-08-30T01:59:54;2.65;;;1.20;;
19059;SDS011;9663;48.996;8.334;2023-08-30T02:02:19;2.65;;;1.13;;
19059;SDS011;9663;48.996;8.334;2023-08-30T02:04:45;2.65;;;1.20;;
19059;SDS011;9663;48.996;8.334;2023-08-30T02:07:13;2.38;;;0.90;;
19059;SDS011;9663;48.996;8.334;2023-08-30T02:09:50;2.72;;;1.00;;
19059;SDS011;9663;48.996;8.334;2023-08-30T02:12:28;2.78;;;1.00;;
19059;SDS011;9663;48.996;8.334;2023-08-30T02:15:02;2.72;;;1.00;;
19059;SDS011;9663;48.996;8.334;2023-08-30T02:17:32;2.63;;;1.08;;
19059;SDS011;9663;48.996;8.334;2023-08-30T02:20:00;3.78;;;0.95;;
19059;SDS011;9663;48.996;8.334;2023-08-30T02:22:27;2.67;;;1.02;;
19059;SDS011;9663;48.996;8.334;2023-08-30T02:24:55;2.53;;;1.00;;
19059;SDS011;9663;48.996;8.334;2023-08-30T02:27:21;2.88;;;1.20;;
19059;SDS011;9663;48.996;8.334;2023-08-30T02:29:47;3.58;;;1.13;;
19059;SDS011;9663;48.996;8.334;2023-08-30T02:32:12;2.53;;;1.08;;
19059;SDS011;9663;48.996;8.334;2023-08-30T02:34:38;3.03;;;1.13;;
19059;SDS011;9663;48.996;8.334;2023-08-30T02:37:04;1.98;;;0.85;;
19059;SDS011;9663;48.996;8.334;2023-08-30T02:39:29;3.22;;;1.17;;
19059;SDS011;9663;48.996;8.334;2023-08-30T02:41:55;2.90;;;1.38;;
19059;SDS011;9663;48.996;8.334;2023-08-30T02:44:21;3.08;;;1.20;;
19059;SDS011;9663;48.996;8.334;2023-08-30T02:46:46;2.97;;;1.10;;
19059;SDS011;9663;48.996;8.334;2023-08-30T02:49:12;3.10;;;1.20;;
19059;SDS011;9663;48.996;8.334;2023-08-30T02:51:37;2.70;;;1.00;;
19059;SDS011;9663;48.996;8.334;2023-08-30T02:54:03;3.08;;;1.27;;
19059;SDS011;9663;48.996;8.334;2023-08-30T02:56:31;2.65;;;1.10;;
19059;SDS011;9663;48.996;8.334;2023-08-30T02:58:57;2.83;;;1.23;;
19059;SDS011;9663;48.996;8.334;2023-08-30T03:01:22;3.63;;;1.13;;
19059;SDS011;9663;48.996;8.334;2023-08-30T03:03:48;2.28;;;1.00;;
19059;SDS011;9663;48.996;8.334;2023-08-30T03:06:14;2.67;;;1.20;;
19059;SDS011;9663;48.996;8.334;2023-08-30T03:08:39;3.03;;;1.00;;
19059;SDS011;9663;48.996;8.334;2023-08-30T03:11:12;3.45;;;1.20;;
19059;SDS011;9663;48.996;8.334;2023-08-30T03:13:39;2.63;;;1.15;;
19059;SDS011;9663;48.996;8.334;2023-08-30T03:16:14;3.72;;;1.20;;
19059;SDS011;9663;48.996;8.334;2023-08-30T03:18:41;2.45;;;1.00;;
19059;SDS011;9663;48.996;8.334;2023-08-30T03:21:08;3.35;;;1.20;;
19059;SDS011;9663;48.996;8.334;2023-08-30T03:23:35;2.97;;;1.00;;
19059;SDS011;9663;48.996;8.334;2023-08-30T03:28:38;2.83;;;1.10;;
19059;SDS011;9663;48.996;8.334;2023-08-30T03:33:40;2.72;;;1.20;;
19059;SDS011;9663;48.996;8.334;2023-08-30T03:36:08;2.60;;;1.20;;
19059;SDS011;9663;48.996;8.334;2023-08-30T03:38:36;2.33;;;1.00;;
19059;SDS011;9663;48.996;8.334;2023-08-30T03:41:03;2.50;;;1.00;;
19059;SDS011;9663;48.996;8.334;2023-08-30T03:43:29;3.35;;;1.23;;
19059;SDS011;9663;48.996;8.334;2023-08-30T03:45:56;2.90;;;1.25;;
19059;SDS011;9663;48.996;8.334;2023-08-30T03:48:24;2.75;;;1.13;;
19059;SDS011;9663;48.996;8.334;2023-08-30T03:50:50;2.47;;;1.05;;
19059;SDS011;9663;48.996;8.334;2023-08-30T03:53:15;2.70;;;1.08;;
19059;SDS011;9663;48.996;8.334;2023-08-30T03:55:41;2.30;;;1.02;;
19059;SDS011;9663;48.996;8.334;2023-08-30T03:58:07;2.75;;;1.23;;
19059;SDS011;9663;48.996;8.334;2023-08-30T04:00:35;2.75;;;1.20;;
19059;SDS011;9663;48.996;8.334;2023-08-30T04:03:02;2.78;;;1.10;;
19059;SDS011;9663;48.996;8.334;2023-08-30T04:05:32;3.08;;;1.20;;
19059;SDS011;9663;48.996;8.334;2023-08-30T04:07:59;3.65;;;1.35;;
19059;SDS011;9663;48.996;8.334;2023-08-30T04:10:25;3.28;;;1.30;;
19059;SDS011;9663;48.996;8.334;2023-08-30T04:12:51;3.25;;;1.20;;
19059;SDS011;9663;48.996;8.334;2023-08-30T04:15:17;3.30;;;1.30;;
19059;SDS011;9663;48.996;8.334;2023-08-30T04:17:42;3.20;;;1.20;;
19059;SDS011;9663;48.996;8.334;2023-08-30T04:20:08;3.30;;;1.15;;
19059;SDS011;9663;48.996;8.334;2023-08-30T04:22:35;2.70;;;1.20;;
19059;SDS011;9663;48.996;8.334;2023-08-30T04:25:01;3.00;;;1.25;;
19059;SDS011;9663;48.996;8.334;2023-08-30T04:27:28;2.17;;;1.13;;
19059;SDS011;9663;48.996;8.334;2023-08-30T04:29:54;2.88;;;1.17;;
19059;SDS011;9663;48.996;8.334;2023-08-30T04:32:20;2.75;;;1.10;;
19059;SDS011;9663;48.996;8.334;2023-08-30T04:34:45;2.75;;;1.23;;
19059;SDS011;9663;48.996;8.334;2023-08-30T04:37:11;2.47;;;1.02;;
19059;SDS011;9663;48.996;8.334;2023-08-30T04:39:37;2.88;;;1.15;;
19059;SDS011;9663;48.996;8.334;2023-08-30T04:42:02;2.72;;;1.23;;
19059;SDS011;9663;48.996;8.334;2023-08-30T04:44:28;2.55;;;1.08;;
19059;SDS011;9663;48.996;8.334;2023-08-30T04:46:57;2.53;;;1.00;;
19059;SDS011;9663;48.996;8.334;2023-08-30T04:49:22;3.70;;;1.38;;
19059;SDS011;9663;48.996;8.334;2023-08-30T04:51:50;4.60;;;1.40;;
19059;SDS011;9663;48.996;8.334;2023-08-30T04:54:16;2.65;;;1.33;;
19059;SDS011;9663;48.996;8.334;2023-08-30T04:56:42;3.38;;;1.25;;
19059;SDS011;9663;48.996;8.334;2023-08-30T04:59:07;2.90;;;1.23;;
19059;SDS011;9663;48.996;8.334;2023-08-30T05:01:33;4.00;;;1.20;;
19059;SDS011;9663;48.996;8.334;2023-08-30T05:03:59;2.78;;;1.23;;
19059;SDS011;9663;48.996;8.334;2023-08-30T05:06:24;3.30;;;1.15;;
19059;SDS011;9663;48.996;8.334;2023-08-30T05:08:51;3.10;;;1.25;;
19059;SDS011;9663;48.996;8.334;2023-08-30T05:11:16;2.92;;;1.30;;
19059;SDS011;9663;48.996;8.334;2023-08-30T05:13:42;2.55;;;1.13;;
19059;SDS011;9663;48.996;8.334;2023-08-30T05:16:08;2.78;;;1.20;;
19059;SDS011;9663;48.996;8.334;2023-08-30T05:18:33;3.10;;;1.50;;
19059;SDS011;9663;48.996;8.334;2023-08-30T05:20:59;2.72;;;1.10;;
19059;SDS011;9663;48.996;8.334;2023-08-30T05:23:24;2.45;;;1.00;;
19059;SDS011;9663;48.996;8.334;2023-08-30T05:25:50;2.85;;;1.27;;
19059;SDS011;9663;48.996;8.334;2023-08-30T05:28:16;2.80;;;1.40;;
19059;SDS011;9663;48.996;8.334;2023-08-30T05:30:42;2.45;;;1.10;;
19059;SDS011;9663;48.996;8.334;2023-08-30T05:33:09;2.92;;;1.20;;
19059;SDS011;9663;48.996;8.334;2023-08-30T05:35:34;2.97;;;1.23;;
19059;SDS011;9663;48.996;8.334;2023-08-30T05:38:00;3.92;;;1.35;;
19059;SDS011;9663;48.996;8.334;2023-08-30T05:40:25;3.25;;;1.30;;
19059;SDS011;9663;48.996;8.334;2023-08-30T05:42:51;4.28;;;1.17;;
19059;SDS011;9663;48.996;8.334;2023-08-30T05:45:17;3.13;;;1.40;;
19059;SDS011;9663;48.996;8.334;2023-08-30T05:47:42;2.70;;;1.10;;
19059;SDS011;9663;48.996;8.334;2023-08-30T05:50:08;3.00;;;1.38;;
19059;SDS011;9663;48.996;8.334;2023-08-30T05:52:34;2.67;;;1.13;;
19059;SDS011;9663;48.996;8.334;2023-08-30T05:55:00;2.17;;;1.08;;
19059;SDS011;9663;48.996;8.334;2023-08-30T05:57:25;2.58;;;1.10;;
19059;SDS011;9663;48.996;8.334;2023-08-30T05:59:52;2.45;;;1.05;;
19059;SDS011;9663;48.996;8.334;2023-08-30T06:02:18;2.25;;;1.00;;
19059;SDS011;9663;48.996;8.334;2023-08-30T06:04:43;2.20;;;1.00;;
19059;SDS011;9663;48.996;8.334;2023-08-30T06:07:09;2.75;;;1.10;;
19059;SDS011;9663;48.996;8.334;2023-08-30T06:09:35;2.60;;;1.10;;
19059;SDS011;9663;48.996;8.334;2023-08-30T06:12:00;2.58;;;1.10;;
19059;SDS011;9663;48.996;8.334;2023-08-30T06:14:26;2.75;;;1.10;;
19059;SDS011;9663;48.996;8.334;2023-08-30T06:16:52;3.10;;;1.50;;
19059;SDS011;9663;48.996;8.334;2023-08-30T06:19:18;2.10;;;1.00;;
19059;SDS011;9663;48.996;8.334;2023-08-30T06:21:43;3.10;;;1.30;;
19059;SDS011;9663;48.996;8.334;2023-08-30T06:24:09;2.90;;;1.25;;
19059;SDS011;9663;48.996;8.334;2023-08-30T06:26:35;4.28;;;1.30;;
19059;SDS011;9663;48.996;8.334;2023-08-30T06:29:00;2.70;;;1.10;;
19059;SDS011;9663;48.996;8.334;2023-08-30T06:31:26;3.40;;;1.25;;
19059;SDS011;9663;48.996;8.334;2023-08-30T06:33:53;2.28;;;0.90;;
19059;SDS011;9663;48.996;8.334;2023-08-30T06:36:19;2.22;;;1.00;;
19059;SDS011;9663;48.996;8.334;2023-08-30T06:38:47;2.60;;;1.17;;
19059;SDS011;9663;48.996;8.334;2023-08-30T06:41:13;3.15;;;1.30;;
19059;SDS011;9663;48.996;8.334;2023-08-30T06:43:39;3.03;;;1.10;;
19059;SDS011;9663;48.996;8.334;2023-08-30T06:46:04;3.15;;;1.25;;
19059;SDS011;9663;48.996;8.334;2023-08-30T06:48:30;2.80;;;1.20;;
19059;SDS011;9663;48.996;8.334;2023-08-30T06:50:59;2.88;;;1.30;;
19059;SDS011;9663;48.996;8.334;2023-08-30T06:53:27;3.17;;;1.38;;
19059;SDS011;9663;48.996;8.334;2023-08-30T06:55:57;2.30;;;1.10;;
19059;SDS011;9663;48.996;8.334;2023-08-30T06:58:23;3.58;;;1.45;;
19059;SDS011;9663;48.996;8.334;2023-08-30T07:00:49;2.80;;;1.17;;
19059;SDS011;9663;48.996;8.334;2023-08-30T07:03:15;2.75;;;1.00;;
19059;SDS011;9663;48.996;8.334;2023-08-30T07:05:40;3.33;;;1.27;;
19059;SDS011;9663;48.996;8.334;2023-08-30T07:08:08;3.50;;;1.40;;
19059;SDS011;9663;48.996;8.334;2023-08-30T07:10:34;2.63;;;1.20;;
19059;SDS011;9663;48.996;8.334;2023-08-30T07:13:00;2.65;;;1.10;;
19059;SDS011;9663;48.996;8.334;2023-08-30T07:15:26;3.15;;;1.30;;
19059;SDS011;9663;48.996;8.334;2023-08-30T07:17:51;3.25;;;1.30;;
19059;SDS011;9663;48.996;8.334;2023-08-30T07:20:17;3.25;;;1.20;;
19059;SDS011;9663;48.996;8.334;2023-08-30T07:22:43;2.53;;;1.00;;
19059;SDS011;9663;48.996;8.334;2023-08-30T07:25:08;2.80;;;1.10;;
19059;SDS011;9663;48.996;8.334;2023-08-30T07:27:35;2.70;;;1.13;;
19059;SDS011;9663;48.996;8.334;2023-08-30T07:30:02;2.75;;;1.20;;
19059;SDS011;9663;48.996;8.334;2023-08-30T07:32:29;2.88;;;1.15;;
19059;SDS011;9663;48.996;8.334;2023-08-30T07:34:55;2.53;;;1.17;;
19059;SDS011;9663;48.996;8.334;2023-08-30T07:37:21;2.72;;;1.15;;
19059;SDS011;9663;48.996;8.334;2023-08-30T07:39:47;2.60;;;1.00;;
19059;SDS011;9663;48.996;8.334;2023-08-30T07:42:13;2.75;;;1.20;;
19059;SDS011;9663;48.996;8.334;2023-08-30T07:44:40;2.67;;;1.13;;
19059;SDS011;9663;48.996;8.334;2023-08-30T07:47:06;2.55;;;1.10;;
19059;SDS011;9663;48.996;8.334;2023-08-30T07:49:32;2.25;;;1.00;;
19059;SDS011;9663;48.996;8.334;2023-08-30T07:51:58;2.13;;;1.08;;
19059;SDS011;9663;48.996;8.334;2023-08-30T07:54:23;2.25;;;0.90;;
19059;SDS011;9663;48.996;8.334;2023-08-30T07:56:49;2.97;;;1.13;;
19059;SDS011;9663;48.996;8.334;2023-08-30T07:59:15;3.58;;;1.30;;
19059;SDS011;9663;48.996;8.334;2023-08-30T08:01:40;3.63;;;1.30;;
19059;SDS011;9663;48.996;8.334;2023-08-30T08:04:06;3.05;;;1.13;;
19059;SDS011;9663;48.996;8.334;2023-08-30T08:06:32;2.97;;;1.13;;
19059;SDS011;9663;48.996;8.334;2023-08-30T08:08:58;2.90;;;0.90;;
19059;SDS011;9663;48.996;8.334;2023-08-30T08:11:23;2.28;;;1.00;;
19059;SDS011;9663;48.996;8.334;2023-08-30T08:13:50;2.85;;;1.20;;
19059;SDS011;9663;48.996;8.334;2023-08-30T08:16:15;2.90;;;1.13;;
19059;SDS011;9663;48.996;8.334;2023-08-30T08:18:41;3.47;;;1.30;;
19059;SDS011;9663;48.996;8.334;2023-08-30T08:21:07;2.85;;;1.05;;
19059;SDS011;9663;48.996;8.334;2023-08-30T08:23:32;2.90;;;1.27;;
19059;SDS011;9663;48.996;8.334;2023-08-30T08:25:58;2.72;;;1.30;;
19059;SDS011;9663;48.996;8.334;2023-08-30T08:28:25;3.10;;;1.40;;
19059;SDS011;9663;48.996;8.334;2023-08-30T08:30:51;2.45;;;1.05;;
19059;SDS011;9663;48.996;8.334;2023-08-30T08:33:17;2.65;;;1.20;;
19059;SDS011;9663;48.996;8.334;2023-08-30T08:35:43;2.63;;;0.90;;
19059;SDS011;9663;48.996;8.334;2023-08-30T08:38:10;2.78;;;1.23;;
19059;SDS011;9663;48.996;8.334;2023-08-30T08:40:39;3.22;;;1.25;;
19059;SDS011;9663;48.996;8.334;2023-08-30T08:43:05;2.88;;;1.30;;
19059;SDS011;9663;48.996;8.334;2023-08-30T08:45:34;3.00;;;1.13;;
19059;SDS011;9663;48.996;8.334;2023-08-30T08:48:03;2.70;;;1.10;;
19059;SDS011;9663;48.996;8.334;2023-08-30T08:50:30;2.42;;;1.10;;
19059;SDS011;9663;48.996;8.334;2023-08-30T08:53:01;3.05;;;1.30;;
19059;SDS011;9663;48.996;8.334;2023-08-30T08:55:28;2.75;;;1.00;;
19059;SDS011;9663;48.996;8.334;2023-08-30T08:57:56;3.65;;;1.00;;
19059;SDS011;9663;48.996;8.334;2023-08-30T09:00:25;3.17;;;1.17;;
19059;SDS011;9663;48.996;8.334;2023-08-30T09:02:54;2.78;;;1.10;;
19059;SDS011;9663;48.996;8.334;2023-08-30T09:05:21;3.10;;;1.20;;
19059;SDS011;9663;48.996;8.334;2023-08-30T09:07:47;3.13;;;1.30;;
19059;SDS011;9663;48.996;8.334;2023-08-30T09:10:16;1.98;;;0.95;;
19059;SDS011;9663;48.996;8.334;2023-08-30T09:12:42;2.55;;;1.10;;
19059;SDS011;9663;48.996;8.334;2023-08-30T09:15:07;2.60;;;1.15;;
19059;SDS011;9663;48.996;8.334;2023-08-30T09:17:37;2.70;;;1.10;;
19059;SDS011;9663;48.996;8.334;2023-08-30T09:20:07;6.47;;;1.17;;
19059;SDS011;9663;48.996;8.334;2023-08-30T09:22:38;2.50;;;1.10;;
19059;SDS011;9663;48.996;8.334;2023-08-30T09:25:08;2.72;;;1.20;;
19059;SDS011;9663;48.996;8.334;2023-08-30T09:27:48;2.35;;;1.05;;
19059;SDS011;9663;48.996;8.334;2023-08-30T09:30:14;2.55;;;1.10;;
19059;SDS011;9663;48.996;8.334;2023-08-30T09:32:46;2.65;;;1.05;;
19059;SDS011;9663;48.996;8.334;2023-08-30T09:35:12;2.50;;;1.08;;
19059;SDS011;9663;48.996;8.334;2023-08-30T09:37:38;2.40;;;1.05;;
19059;SDS011;9663;48.996;8.334;2023-08-30T09:40:04;2.40;;;0.95;;
19059;SDS011;9663;48.996;8.334;2023-08-30T09:42:31;2.78;;;1.30;;
19059;SDS011;9663;48.996;8.334;2023-08-30T09:44:57;2.30;;;1.00;;
19059;SDS011;9663;48.996;8.334;2023-08-30T09:47:26;2.67;;;1.17;;
19059;SDS011;9663;48.996;8.334;2023-08-30T09:49:54;2.47;;;1.15;;
19059;SDS011;9663;48.996;8.334;2023-08-30T09:52:21;1.98;;;0.90;;
19059;SDS011;9663;48.996;8.334;2023-08-30T09:54:51;2.28;;;0.95;;
19059;SDS011;9663;48.996;8.334;2023-08-30T09:57:17;2.53;;;1.00;;
19059;SDS011;9663;48.996;8.334;2023-08-30T09:59:46;2.58;;;0.90;;
19059;SDS011;9663;48.996;8.334;2023-08-30T10:02:13;1.95;;;0.90;;
19059;SDS011;9663;48.996;8.334;2023-08-30T10:04:40;2.65;;;1.00;;
19059;SDS011;9663;48.996;8.334;2023-08-30T10:07:08;2.65;;;1.00;;
19059;SDS011;9663;48.996;8.334;2023-08-30T10:09:36;2.65;;;1.10;;
19059;SDS011;9663;48.996;8.334;2023-08-30T10:12:04;2.55;;;1.08;;
19059;SDS011;9663;48.996;8.334;2023-08-30T10:14:31;2.72;;;1.20;;
19059;SDS011;9663;48.996;8.334;2023-08-30T10:17:06;2.58;;;1.20;;
19059;SDS011;9663;48.996;8.334;2023-08-30T10:19:37;2.20;;;0.82;;
19059;SDS011;9663;48.996;8.334;2023-08-30T10:22:05;2.42;;;0.90;;
19059;SDS011;9663;48.996;8.334;2023-08-30T10:24:46;2.10;;;0.88;;
19059;SDS011;9663;48.996;8.334;2023-08-30T10:27:20;1.83;;;0.82;;
19059;SDS011;9663;48.996;8.334;2023-08-30T10:29:49;2.08;;;0.90;;
19059;SDS011;9663;48.996;8.334;2023-08-30T10:32:20;2.58;;;1.13;;
19059;SDS011;9663;48.996;8.334;2023-08-30T10:34:47;2.53;;;1.08;;
19059;SDS011;9663;48.996;8.334;2023-08-30T10:37:15;2.45;;;1.10;;
19059;SDS011;9663;48.996;8.334;2023-08-30T10:39:42;3.03;;;1.20;;
19059;SDS011;9663;48.996;8.334;2023-08-30T10:42:13;2.90;;;1.15;;
19059;SDS011;9663;48.996;8.334;2023-08-30T10:50:06;2.83;;;1.20;;
19059;SDS011;9663;48.996;8.334;2023-08-30T10:52:35;2.30;;;1.00;;
19059;SDS011;9663;48.996;8.334;2023-08-30T10:57:37;3.00;;;1.05;;
19059;SDS011;9663;48.996;8.334;2023-08-30T11:00:08;2.25;;;0.90;;
19059;SDS011;9663;48.996;8.334;2023-08-30T11:02:38;2.63;;;0.93;;
19059;SDS011;9663;48.996;8.334;2023-08-30T11:05:12;3.53;;;1.00;;
19059;SDS011;9663;48.996;8.334;2023-08-30T11:07:37;2.40;;;1.00;;
19059;SDS011;9663;48.996;8.334;2023-08-30T11:10:06;2.47;;;1.10;;
19059;SDS011;9663;48.996;8.334;2023-08-30T11:12:33;3.35;;;1.10;;
19059;SDS011;9663;48.996;8.334;2023-08-30T11:15:00;2.80;;;1.20;;
19059;SDS011;9663;48.996;8.334;2023-08-30T11:17:27;4.95;;;1.40;;
19059;SDS011;9663;48.996;8.334;2023-08-30T11:19:57;2.67;;;1.05;;
19059;SDS011;9663;48.996;8.334;2023-08-30T11:22:35;5.20;;;1.27;;
19059;SDS011;9663;48.996;8.334;2023-08-30T11:25:13;3.10;;;1.20;;
19059;SDS011;9663;48.996;8.334;2023-08-30T11:27:40;3.00;;;1.23;;
19059;SDS011;9663;48.996;8.334;2023-08-30T11:30:07;2.47;;;1.05;;
19059;SDS011;9663;48.996;8.334;2023-08-30T11:32:35;2.58;;;1.05;;
19059;SDS011;9663;48.996;8.334;2023-08-30T11:35:05;2.90;;;1.17;;
19059;SDS011;9663;48.996;8.334;2023-08-30T11:37:32;2.30;;;1.00;;
19059;SDS011;9663;48.996;8.334;2023-08-30T11:39:58;3.72;;;1.17;;
19059;SDS011;9663;48.996;8.334;2023-08-30T11:42:28;1.75;;;0.80;;
19059;SDS011;9663;48.996;8.334;2023-08-30T11:44:57;2.20;;;1.00;;
19059;SDS011;9663;48.996;8.334;2023-08-30T11:47:29;3.00;;;1.00;;
19059;SDS011;9663;48.996;8.334;2023-08-30T11:49:57;2.17;;;0.80;;
19059;SDS011;9663;48.996;8.334;2023-08-30T11:52:24;2.50;;;1.08;;
19059;SDS011;9663;48.996;8.334;2023-08-30T11:54:51;2.83;;;1.00;;
19059;SDS011;9663;48.996;8.334;2023-08-30T11:57:18;2.00;;;0.88;;
19059;SDS011;9663;48.996;8.334;2023-08-30T11:59:44;2.58;;;0.90;;
19059;SDS011;9663;48.996;8.334;2023-08-30T12:02:13;3.20;;;0.90;;
19059;SDS011;9663;48.996;8.334;2023-08-30T12:04:42;2.08;;;0.93;;
19059;SDS011;9663;48.996;8.334;2023-08-30T12:07:20;1.88;;;0.90;;
19059;SDS011;9663;48.996;8.334;2023-08-30T12:09:51;2.17;;;0.85;;
19059;SDS011;9663;48.996;8.334;2023-08-30T12:12:18;2.03;;;0.85;;
19059;SDS011;9663;48.996;8.334;2023-08-30T12:14:44;3.35;;;0.88;;
19059;SDS011;9663;48.996;8.334;2023-08-30T12:17:10;2.65;;;0.88;;
19059;SDS011;9663;48.996;8.334;2023-08-30T12:19:37;2.30;;;1.00;;
19059;SDS011;9663;48.996;8.334;2023-08-30T12:22:05;2.47;;;0.90;;
19059;SDS011;9663;48.996;8.334;2023-08-30T12:24:45;2.08;;;0.90;;
19059;SDS011;9663;48.996;8.334;2023-08-30T12:27:11;2.67;;;1.02;;
19059;SDS011;9663;48.996;8.334;2023-08-30T12:29:38;2.28;;;1.00;;
19059;SDS011;9663;48.996;8.334;2023-08-30T12:32:06;2.15;;;0.90;;
19059;SDS011;9663;48.996;8.334;2023-08-30T12:34:32;1.88;;;0.80;;
19059;SDS011;9663;48.996;8.334;2023-08-30T12:36:59;2.92;;;0.80;;
19059;SDS011;9663;48.996;8.334;2023-08-30T12:39:25;1.50;;;0.68;;
19059;SDS011;9663;48.996;8.334;2023-08-30T12:41:51;1.50;;;0.70;;
19059;SDS011;9663;48.996;8.334;2023-08-30T12:44:16;2.08;;;0.85;;
19059;SDS011;9663;48.996;8.334;2023-08-30T12:46:45;1.85;;;0.70;;
19059;SDS011;9663;48.996;8.334;2023-08-30T12:49:10;1.98;;;0.80;;
19059;SDS011;9663;48.996;8.334;2023-08-30T12:51:36;1.55;;;0.70;;
19059;SDS011;9663;48.996;8.334;2023-08-30T12:54:03;1.90;;;0.80;;
19059;SDS011;9663;48.996;8.334;2023-08-30T12:56:32;1.98;;;0.73;;
19059;SDS011;9663;48.996;8.334;2023-08-30T12:58:58;1.95;;;0.73;;
19059;SDS011;9663;48.996;8.334;2023-08-30T13:01:24;1.95;;;0.80;;
19059;SDS011;9663;48.996;8.334;2023-08-30T13:03:49;2.13;;;0.70;;
19059;SDS011;9663;48.996;8.334;2023-08-30T13:06:15;1.38;;;0.60;;
19059;SDS011;9663;48.996;8.334;2023-08-30T13:08:41;2.63;;;0.95;;
19059;SDS011;9663;48.996;8.334;2023-08-30T13:11:07;1.92;;;0.70;;
19059;SDS011;9663;48.996;8.334;2023-08-30T13:13:32;1.42;;;0.70;;
19059;SDS011;9663;48.996;8.334;2023-08-30T13:15:59;1.67;;;0.70;;
19059;SDS011;9663;48.996;8.334;2023-08-30T13:18:25;1.73;;;0.70;;
19059;SDS011;9663;48.996;8.334;2023-08-30T13:20:53;2.13;;;0.77;;
19059;SDS011;9663;48.996;8.334;2023-08-30T13:23:20;2.20;;;0.70;;
19059;SDS011;9663;48.996;8.334;2023-08-30T13:25:47;1.88;;;0.77;;
19059;SDS011;9663;48.996;8.334;2023-08-30T13:28:14;1.90;;;0.70;;
19059;SDS011;9663;48.996;8.334;2023-08-30T13:30:46;1.58;;;0.65;;
19059;SDS011;9663;48.996;8.334;2023-08-30T13:33:12;0.90;;;0.50;;
19059;SDS011;9663;48.996;8.334;2023-08-30T13:35:41;2.25;;;0.85;;
19059;SDS011;9663;48.996;8.334;2023-08-30T13:38:08;1.65;;;0.68;;
19059;SDS011;9663;48.996;8.334;2023-08-30T13:40:33;1.55;;;0.70;;
19059;SDS011;9663;48.996;8.334;2023-08-30T13:42:59;2.03;;;0.70;;
19059;SDS011;9663;48.996;8.334;2023-08-30T13:45:26;1.67;;;0.60;;
19059;SDS011;9663;48.996;8.334;2023-08-30T13:47:52;1.63;;;0.60;;
19059;SDS011;9663;48.996;8.334;2023-08-30T13:50:19;1.55;;;0.70;;
19059;SDS011;9663;48.996;8.334;2023-08-30T13:52:45;2.22;;;0.80;;
19059;SDS011;9663;48.996;8.334;2023-08-30T13:55:11;1.67;;;0.77;;
19059;SDS011;9663;48.996;8.334;2023-08-30T13:57:42;1.48;;;0.70;;
19059;SDS011;9663;48.996;8.334;2023-08-30T14:00:08;1.88;;;0.75;;
19059;SDS011;9663;48.996;8.334;2023-08-30T14:02:41;1.67;;;0.70;;
19059;SDS011;9663;48.996;8.334;2023-08-30T14:05:07;2.35;;;0.98;;
19059;SDS011;9663;48.996;8.334;2023-08-30T14:07:33;2.03;;;0.90;;
19059;SDS011;9663;48.996;8.334;2023-08-30T14:09:59;1.50;;;0.60;;
19059;SDS011;9663;48.996;8.334;2023-08-30T14:12:25;2.00;;;0.70;;
19059;SDS011;9663;48.996;8.334;2023-08-30T14:14:51;1.58;;;0.75;;
19059;SDS011;9663;48.996;8.334;2023-08-30T14:17:18;2.15;;;0.80;;
19059;SDS011;9663;48.996;8.334;2023-08-30T14:19:44;2.30;;;0.80;;
19059;SDS011;9663;48.996;8.334;2023-08-30T14:22:10;1.45;;;0.70;;
19059;SDS011;9663;48.996;8.334;2023-08-30T14:24:35;2.05;;;0.82;;
19059;SDS011;9663;48.996;8.334;2023-08-30T14:27:01;2.42;;;0.73;;
19059;SDS011;9663;48.996;8.334;2023-08-30T14:29:28;2.00;;;0.80;;
19059;SDS011;9663;48.996;8.334;2023-08-30T14:31:54;2.78;;;0.75;;
19059;SDS011;9663;48.996;8.334;2023-08-30T14:34:22;3.47;;;0.93;;
19059;SDS011;9663;48.996;8.334;2023-08-30T14:36:48;2.63;;;0.80;;
19059;SDS011;9663;48.996;8.334;2023-08-30T14:39:14;1.98;;;0.80;;
19059;SDS011;9663;48.996;8.334;2023-08-30T14:41:44;2.00;;;0.80;;
19059;SDS011;9663;48.996;8.334;2023-08-30T14:44:10;1.85;;;0.70;;
19059;SDS011;9663;48.996;8.334;2023-08-30T14:46:36;2.38;;;0.80;;
19059;SDS011;9663;48.996;8.334;2023-08-30T14:49:02;2.20;;;0.90;;
19059;SDS011;9663;48.996;8.334;2023-08-30T14:51:28;2.30;;;0.90;;
19059;SDS011;9663;48.996;8.334;2023-08-30T14:53:53;2.10;;;0.82;;
19059;SDS011;9663;48.996;8.334;2023-08-30T14:56:19;2.40;;;0.95;;
19059;SDS011;9663;48.996;8.334;2023-08-30T14:58:45;2.13;;;0.70;;
19059;SDS011;9663;48.996;8.334;2023-08-30T15:01:17;2.40;;;0.80;;
19059;SDS011;9663;48.996;8.334;2023-08-30T15:03:43;3.00;;;0.90;;
19059;SDS011;9663;48.996;8.334;2023-08-30T15:06:08;3.00;;;0.90;;
19059;SDS011;9663;48.996;8.334;2023-08-30T15:08:34;1.75;;;0.77;;
19059;SDS011;9663;48.996;8.334;2023-08-30T15:10:59;1.85;;;0.77;;
19059;SDS011;9663;48.996;8.334;2023-08-30T15:13:25;1.80;;;0.70;;
19059;SDS011;9663;48.996;8.334;2023-08-30T15:15:51;1.70;;;0.68;;
19059;SDS011;9663;48.996;8.334;2023-08-30T15:18:17;1.42;;;0.60;;